Vers la page d'accueil de NAV CANADA Ouverture d'une nouvelle session Chercher sur le site AWWS Clause de non-reponsabilité To the equivalent English page Trucs et astuces FAQ Quoi de neuf sur le site Vers la section Prévisions et observations / NOTAM Vers le site web pour <<Déposer un plan de vol>> Publications et liens importants Mise à jour du profil d'usager Numéros de téléphone des FIC Mes données météo personnelles Données météo de route Données météo régionales Données météo locales Vers la section Prévisions et observations / NOTAM
Requête générée le 2021/09/16 à 15:12:17 UTC. L'information météorologique disponible à ce moment est affichée.

METAR/TAF

Si vous notez des différences entre le METAR/TAF codé et le METAR/TAF en langage clair, veuillez utiliser la version codée. Les bulletins LWIS ne sont pas décodés en langage clair.

MONTREAL/ST-HUBERT/QC    (voir Cam météo)

METAR CYHU 161500Z AUTO VRB03KT 9SM CLR 20/12 A3028 RMK SLP254 DENSITY ALT 300F
METAR
LIEU
CYHU - MONTREAL/ST-HUBERT/QC
DATE - HEURE
16 SEPTEMBRE 2021 - 1500 UTC
VENT
VRB @ 3  NOEUDS
VISIBILITE
9 MILLES TERR.
PORTEE VISUELLE DE PISTE
METEO
NEBULOSITE
CIEL DEGAGE
TEMP / PT DE ROSEE
20 C / 12 C
ALTIMETRE
30.28 PO HG
TEMPS RECENT
CISAILLEMENT

METAR CYHU 161400Z AUTO 00000KT 9SM CLR 18/13 A3028 RMK SLP254 DENSITY ALT 100F
METAR
LIEU
CYHU - MONTREAL/ST-HUBERT/QC
DATE - HEURE
16 SEPTEMBRE 2021 - 1400 UTC
VENT
CALME
VISIBILITE
9 MILLES TERR.
PORTEE VISUELLE DE PISTE
METEO
NEBULOSITE
CIEL DEGAGE
TEMP / PT DE ROSEE
18 C / 13 C
ALTIMETRE
30.28 PO HG
TEMPS RECENT
CISAILLEMENT

METAR CYHU 161300Z AUTO VRB02KT 9SM CLR 16/13 A3028 RMK SLP254=
METAR
LIEU
CYHU - MONTREAL/ST-HUBERT/QC
DATE - HEURE
16 SEPTEMBRE 2021 - 1300 UTC
VENT
VRB @ 2  NOEUDS
VISIBILITE
9 MILLES TERR.
PORTEE VISUELLE DE PISTE
METEO
NEBULOSITE
CIEL DEGAGE
TEMP / PT DE ROSEE
16 C / 13 C
ALTIMETRE
30.28 PO HG
TEMPS RECENT
CISAILLEMENT

TAF CYHU 161138Z 1612/1712 VRB03KT P6SM SKC FM162200 11007KT P6SM SKC PROB30 1708/1712 1SM BR RMK FCST BASED ON AUTO OBS. NXT FCST BY 161800Z=
TAF
LIEU

CYHU - MONTREAL/ST-HUBERT/QC
VALIDITE [UTC]
16 SEP - 1138 à
17 SEP - 1200
 
PERIODES
[UTC]
VENT
[DEGRES VRAIS]
VISIBILITE
[MILLES TERR.]
METEO
NEBULOSITE
[PIEDS AGL]
 
16 SEP - 1200 à
16 SEP - 2200
VARIABLE @ 3 NOEUDS
6+
---
CIEL DEGAGE
 
16 SEP - 2200 à
17 SEP - 1200
110 @ 7 NOEUDS
6+
---
CIEL DEGAGE
30% PROBABILITE
17 SEP - 0800 à
17 SEP - 1200
 
1
BRUME
 
REMARQUES
LA PREVISION EST FONDEE SUR DES OBSERVATIONS AUTOMATISEES - LA PREVISION SUIVANTE SERA EMISE POUR 1800 UTC LE 16


Votre heure Heure UTC
Données météorologiques fournies par Environnement Canada et NAV CANADA